createdAt,value
2018-05-13T00:01:31.168Z,34.60
2018-05-13T00:03:58.616Z,40.77
2018-05-13T00:06:26.841Z,46.60
2018-05-13T00:08:54.320Z,36.57
2018-05-13T00:11:21.810Z,41.30
2018-05-13T00:13:49.312Z,40.77
2018-05-13T00:16:16.832Z,33.07
2018-05-13T00:18:44.306Z,37.83
2018-05-13T00:21:11.784Z,38.23
2018-05-13T00:23:39.248Z,45.73
2018-05-13T00:26:06.929Z,34.57
2018-05-13T00:28:34.643Z,45.13
2018-05-13T00:31:02.122Z,34.20
2018-05-13T00:33:29.605Z,37.23
2018-05-13T00:35:57.085Z,37.80
2018-05-13T00:38:24.586Z,39.73
2018-05-13T00:40:52.043Z,45.90
2018-05-13T00:43:19.515Z,36.67
2018-05-13T00:45:46.993Z,36.10
2018-05-13T00:48:14.481Z,42.33
2018-05-13T00:50:42.045Z,40.30
2018-05-13T00:53:09.440Z,39.47
2018-05-13T00:55:36.903Z,39.10
2018-05-13T00:58:04.392Z,40.93
2018-05-13T01:00:31.853Z,39.97
2018-05-13T01:02:59.307Z,42.03
2018-05-13T01:05:26.796Z,32.57
2018-05-13T01:07:55.020Z,39.17
2018-05-13T01:10:22.480Z,36.60
2018-05-13T01:12:49.964Z,37.90
2018-05-13T01:15:17.445Z,33.57
2018-05-13T01:17:45.668Z,40.67
2018-05-13T01:20:13.143Z,40.03
2018-05-13T01:22:40.605Z,40.40
2018-05-13T01:25:08.088Z,43.83
2018-05-13T01:27:35.554Z,42.07
2018-05-13T01:30:03.892Z,44.70
2018-05-13T01:32:31.359Z,43.63
2018-05-13T01:34:58.845Z,42.93
2018-05-13T01:37:27.096Z,37.53
2018-05-13T01:39:54.556Z,46.00
2018-05-13T01:42:22.022Z,45.27
2018-05-13T01:44:49.510Z,40.30
2018-05-13T01:47:16.963Z,41.70
2018-05-13T01:49:44.443Z,44.17
2018-05-13T01:52:11.911Z,41.60
2018-05-13T01:54:39.573Z,35.77
2018-05-13T01:57:07.059Z,48.23
2018-05-13T01:59:34.544Z,40.17
2018-05-13T02:02:02.030Z,40.87
2018-05-13T02:04:30.307Z,46.03
2018-05-13T02:06:57.812Z,43.63
2018-05-13T02:09:25.292Z,41.27
2018-05-13T02:11:52.764Z,50.60
2018-05-13T02:14:20.223Z,48.30
2018-05-13T02:16:47.705Z,62.57
2018-05-13T02:19:15.171Z,41.37
2018-05-13T02:21:42.743Z,46.70
2018-05-13T02:24:10.217Z,52.93
2018-05-13T02:26:37.713Z,50.90
2018-05-13T02:29:05.187Z,48.80
2018-05-13T02:31:32.659Z,45.50
2018-05-13T02:34:00.137Z,47.03
2018-05-13T02:36:27.653Z,40.80
2018-05-13T02:38:55.921Z,48.50
2018-05-13T02:41:23.423Z,51.30
2018-05-13T02:43:50.892Z,51.60
2018-05-13T02:46:18.380Z,49.30
2018-05-13T02:48:45.836Z,48.00
2018-05-13T02:51:13.329Z,38.80
2018-05-13T02:53:41.552Z,50.10
2018-05-13T02:56:09.020Z,50.73
2018-05-13T02:58:36.496Z,47.23
2018-05-13T03:01:03.973Z,42.37
2018-05-13T03:03:31.496Z,46.87
2018-05-13T03:05:59.002Z,52.70
2018-05-13T03:08:27.236Z,48.53
2018-05-13T03:10:54.715Z,50.03
2018-05-13T03:13:22.168Z,45.17
2018-05-13T03:15:49.653Z,54.57
2018-05-13T03:18:17.892Z,46.07
2018-05-13T03:20:45.399Z,53.23
2018-05-13T03:23:12.861Z,58.23
2018-05-13T03:25:40.351Z,47.17
2018-05-13T03:28:07.819Z,52.90
2018-05-13T03:30:35.298Z,51.17
2018-05-13T03:33:02.807Z,53.23
2018-05-13T03:35:30.356Z,68.47
2018-05-13T03:37:57.812Z,53.73
2018-05-13T03:40:25.293Z,62.50
2018-05-13T03:42:52.787Z,54.53
2018-05-13T03:45:20.245Z,50.47
2018-05-13T03:47:47.710Z,58.30
2018-05-13T03:50:15.197Z,53.20
2018-05-13T03:52:43.421Z,50.10
2018-05-13T03:55:10.894Z,50.17
2018-05-13T03:57:38.359Z,50.93
2018-05-13T04:00:05.840Z,52.27
2018-05-13T04:02:33.304Z,59.10
2018-05-13T04:05:00.867Z,55.57
2018-05-13T04:07:28.373Z,55.30
2018-05-13T04:10:07.665Z,50.30
2018-05-13T04:12:46.941Z,52.47
2018-05-13T04:15:28.783Z,56.57
2018-05-13T04:17:56.999Z,56.57
2018-05-13T04:20:24.514Z,52.50
2018-05-13T04:22:52.005Z,49.70
2018-05-13T04:25:19.500Z,57.17
2018-05-13T04:27:46.952Z,53.07
2018-05-13T04:30:14.412Z,56.27
2018-05-13T04:32:41.891Z,58.43
2018-05-13T04:35:09.368Z,51.40
2018-05-13T04:37:37.617Z,51.63
2018-05-13T04:40:05.071Z,50.03
2018-05-13T04:42:33.227Z,54.67
2018-05-13T04:45:00.704Z,49.97
2018-05-13T04:47:28.188Z,53.33
2018-05-13T04:49:55.660Z,52.53
2018-05-13T04:52:23.881Z,53.20
2018-05-13T04:54:51.361Z,47.73
2018-05-13T04:57:18.820Z,46.90
2018-05-13T04:59:46.329Z,48.00
2018-05-13T05:02:13.946Z,48.93
2018-05-13T05:04:41.412Z,52.47
2018-05-13T05:07:08.900Z,48.63
2018-05-13T05:09:36.361Z,50.17
2018-05-13T05:12:03.823Z,49.23
2018-05-13T05:14:31.321Z,48.30
2018-05-13T05:16:58.783Z,59.83
2018-05-13T05:19:26.234Z,51.97
2018-05-13T05:21:53.720Z,52.13
2018-05-13T05:24:21.220Z,47.10
2018-05-13T05:26:48.714Z,51.37
2018-05-13T05:29:16.173Z,42.67
2018-05-13T05:31:43.633Z,45.93
2018-05-13T05:34:11.112Z,49.17
2018-05-13T05:36:38.574Z,45.87
2018-05-13T05:39:06.077Z,52.90
2018-05-13T05:41:33.544Z,44.73
2018-05-13T05:44:01.042Z,48.43
2018-05-13T05:46:28.504Z,48.27
2018-05-13T05:48:56.324Z,44.13
2018-05-13T05:51:23.804Z,48.47
2018-05-13T05:53:51.300Z,52.83
2018-05-13T05:56:19.602Z,50.57
2018-05-13T05:58:47.184Z,49.27
2018-05-13T06:01:14.640Z,46.67
2018-05-13T06:03:42.384Z,50.57
2018-05-13T06:06:09.913Z,48.50
2018-05-13T06:08:38.250Z,46.97
2018-05-13T06:11:05.843Z,46.50
2018-05-13T06:13:33.304Z,46.23
2018-05-13T06:16:00.793Z,57.63
2018-05-13T06:18:28.281Z,43.73
2018-05-13T06:20:55.767Z,41.00
2018-05-13T06:23:23.228Z,43.70
2018-05-13T06:25:50.708Z,39.43
2018-05-13T06:28:18.186Z,49.90
2018-05-13T06:30:45.668Z,57.93
2018-05-13T06:33:13.131Z,42.80
2018-05-13T06:35:40.779Z,45.50
2018-05-13T06:38:08.260Z,46.43
2018-05-13T06:40:35.745Z,44.30
2018-05-13T06:43:03.205Z,52.77
2018-05-13T06:45:30.686Z,51.40
2018-05-13T06:47:58.911Z,54.23
2018-05-13T06:50:26.393Z,51.73
2018-05-13T06:52:53.876Z,54.63
2018-05-13T06:55:22.144Z,59.83
2018-05-13T06:57:50.388Z,47.87
2018-05-13T07:00:17.873Z,60.90
2018-05-13T07:02:45.339Z,63.93
2018-05-13T07:05:12.813Z,55.87
2018-05-13T07:07:41.044Z,51.83
2018-05-13T07:10:08.520Z,58.90
2018-05-13T07:12:35.975Z,66.63
2018-05-13T07:15:03.523Z,62.80
2018-05-13T07:17:31.002Z,52.30
2018-05-13T07:19:58.673Z,52.43
2018-05-13T07:22:26.377Z,56.37
2018-05-13T07:24:53.920Z,58.93
2018-05-13T07:27:21.524Z,57.53
2018-05-13T07:29:49.225Z,55.23
2018-05-13T07:32:16.844Z,52.73
2018-05-13T07:34:44.300Z,48.27
2018-05-13T07:37:11.858Z,53.20
2018-05-13T07:39:39.412Z,57.93
2018-05-13T07:42:06.928Z,54.50
2018-05-13T07:44:35.154Z,47.30
2018-05-13T07:47:02.688Z,49.20
2018-05-13T07:49:30.163Z,47.23
2018-05-13T07:51:57.868Z,45.20
2018-05-13T07:54:25.366Z,47.43
2018-05-13T07:56:52.864Z,51.37
2018-05-13T07:59:20.468Z,56.00
2018-05-13T08:01:47.958Z,52.73
2018-05-13T08:04:15.590Z,59.03
2018-05-13T08:06:43.056Z,46.60
2018-05-13T08:09:11.453Z,55.53
2018-05-13T08:11:38.984Z,36.93
2018-05-13T08:14:06.555Z,50.70
2018-05-13T08:16:34.057Z,46.47
2018-05-13T08:19:01.704Z,46.50
2018-05-13T08:21:29.227Z,55.33
2018-05-13T08:23:56.727Z,53.17
2018-05-13T08:26:24.193Z,54.07
2018-05-13T08:28:51.655Z,45.97
2018-05-13T08:31:19.144Z,44.90
2018-05-13T08:33:46.630Z,46.07
2018-05-13T08:36:14.876Z,43.50
2018-05-13T08:38:42.348Z,48.70
2018-05-13T08:41:10.614Z,53.37
2018-05-13T08:43:38.077Z,47.77
2018-05-13T08:46:05.569Z,49.50
2018-05-13T08:48:33.045Z,37.50
2018-05-13T08:51:00.524Z,41.37
2018-05-13T08:53:27.997Z,43.80
2018-05-13T08:55:55.480Z,39.67
